Saunemin, Illinois
Current Conditions -  °F | °C
As of 2:35 AM on Thursday 27 Nov 2014 (Local Time) from KPNT Reporting Station
Haze Haze  
Wind Chill: 15°   Ceiling: 3400
Heat Index: 25°   Visibility: 5mi
Dew Point: 23°   Wind: 12mph
Humidity: 89%   Direction: 300°WNW
Pressure: 30.26"   Gusts: NA
Location:  40.89°N, 88.41°W
Report Text: KPNT 270835Z AUTO 30010KT 5SM BR OVC034 M04/M05 A3026 RMK AO2 T10371052
Loading
Personal Weather Stations






























Interactive Weather Map New forecast layout! Learn more

10-Day Weather Forecast

Advertisements
Track Severe Weather on mobile